Time;durP1;ratioP1;P1;durP2;ratioP2;P2;SDS_P1;SDS_P2;PMS_P1;PMS_P2;Temp;Humidity;BMP_temperature;BMP_pressure;BME280_temperature;BME280_humidity;BME280_pressure;Samples;Min_cycle;Max_cycle;Signal;HPM_P1;HPM_P2
2021/05/28 00:00:45;;;;;;;;;14.75;14.75;;;;;;;;5007400;28;9452;-78
2021/05/28 00:03:12;;;;;;;;;12.00;11.00;;;;;;;;5009674;28;9644;-81
2021/05/28 00:05:39;;;;;;;;;15.25;15.25;;;;;;;;5010870;28;9732;-81
2021/05/28 00:08:07;;;;;;;;;13.50;13.50;;;;;;;;5009342;28;9589;-77
2021/05/28 00:10:34;;;;;;;;;15.00;15.00;;;;;;;;5009200;28;9475;-78
2021/05/28 00:13:01;;;;;;;;;16.50;15.00;;;;;;;;5009371;28;9601;-80
2021/05/28 00:15:28;;;;;;;;;14.50;14.50;;;;;;;;4993725;28;9582;-83
2021/05/28 00:17:55;;;;;;;;;15.50;15.50;;;;;;;;5005580;28;9596;-84
2021/05/28 00:20:22;;;;;;;;;15.25;12.00;;;;;;;;5010456;28;9566;-80
2021/05/28 00:22:49;;;;;;;;;16.75;15.00;;;;;;;;5008853;28;9642;-84
2021/05/28 00:25:17;;;;;;;;;15.00;12.50;;;;;;;;5016915;28;9636;-84
2021/05/28 00:27:44;;;;;;;;;17.75;16.25;;;;;;;;5009935;28;9927;-81
2021/05/28 00:30:12;;;;;;;;;15.50;15.50;;;;;;;;5008420;28;10391;-79
2021/05/28 00:32:39;;;;;;;;;20.75;19.00;;;;;;;;5009859;28;9849;-81
2021/05/28 00:35:08;;;;;;;;;13.00;12.25;;;;;;;;5008440;28;9737;-79
2021/05/28 00:37:35;;;;;;;;;16.50;14.75;;;;;;;;5010015;28;9706;-81
2021/05/28 00:40:02;;;;;;;;;17.00;17.00;;;;;;;;5008519;28;9875;-81
2021/05/28 00:42:30;;;;;;;;;16.75;16.25;;;;;;;;5010774;28;9844;-83
2021/05/28 00:44:56;;;;;;;;;12.75;12.75;;;;;;;;5008802;28;9910;-82
2021/05/28 00:47:23;;;;;;;;;16.75;15.25;;;;;;;;5008590;28;10560;-79
2021/05/28 00:49:50;;;;;;;;;15.00;14.25;;;;;;;;5018041;28;9704;-81
2021/05/28 00:52:17;;;;;;;;;13.25;13.25;;;;;;;;5009132;28;9730;-85
2021/05/28 00:54:44;;;;;;;;;17.25;16.00;;;;;;;;5010719;28;9817;-84
2021/05/28 00:57:11;;;;;;;;;14.25;13.00;;;;;;;;5007554;28;9900;-82
2021/05/28 00:59:40;;;;;;;;;17.25;16.25;;;;;;;;5010391;28;9899;-84
2021/05/28 01:02:06;;;;;;;;;16.00;15.75;;;;;;;;5001117;28;9896;-80
2021/05/28 01:04:34;;;;;;;;;22.25;16.25;;;;;;;;5008853;28;9751;-82
2021/05/28 01:07:01;;;;;;;;;11.75;11.75;;;;;;;;4994507;28;9794;-82
2021/05/28 01:09:28;;;;;;;;;15.00;15.00;;;;;;;;5007941;28;9812;-80
2021/05/28 01:11:55;;;;;;;;;17.50;15.25;;;;;;;;5013352;28;9725;-82
2021/05/28 01:14:22;;;;;;;;;16.75;16.75;;;;;;;;5005709;28;9634;-82
2021/05/28 01:16:50;;;;;;;;;14.00;14.00;;;;;;;;5005886;28;9726;-81
2021/05/28 01:19:17;;;;;;;;;17.00;17.00;;;;;;;;5004455;28;9652;-83
2021/05/28 01:21:44;;;;;;;;;14.50;14.50;;;;;;;;5005294;28;9708;-81
2021/05/28 01:24:12;;;;;;;;;14.00;14.00;;;;;;;;5006009;28;9629;-82
2021/05/28 01:26:39;;;;;;;;;15.00;15.00;;;;;;;;5005841;28;9667;-82
2021/05/28 01:29:07;;;;;;;;;14.25;14.25;;;;;;;;5008218;28;9895;-84
2021/05/28 01:31:35;;;;;;;;;16.00;14.00;;;;;;;;5001158;28;9901;-85
2021/05/28 01:34:02;;;;;;;;;16.00;16.00;;;;;;;;5014259;28;9982;-84
2021/05/28 01:36:30;;;;;;;;;15.75;14.50;;;;;;;;5004055;28;10231;-83
2021/05/28 01:38:57;;;;;;;;;16.00;16.00;;;;;;;;5006518;28;9963;-77
2021/05/28 01:41:29;;;;;;;;;11.25;11.25;;;;;;;;5005128;28;10874;-80
2021/05/28 01:43:56;;;;;;;;;14.25;14.00;;;;;;;;5005819;28;10169;-78
2021/05/28 01:46:23;;;;;;;;;13.75;10.75;;;;;;;;5001928;28;10096;-83
2021/05/28 01:48:51;;;;;;;;;11.75;11.25;;;;;;;;4994109;28;10047;-83
2021/05/28 01:51:18;;;;;;;;;13.25;13.25;;;;;;;;4993137;28;10047;-81
2021/05/28 01:53:45;;;;;;;;;15.75;14.00;;;;;;;;5003641;28;10213;-82
2021/05/28 01:56:12;;;;;;;;;17.00;15.50;;;;;;;;5005734;28;10180;-84
2021/05/28 01:58:40;;;;;;;;;15.75;14.50;;;;;;;;5003055;28;10277;-80
2021/05/28 02:01:07;;;;;;;;;14.75;14.00;;;;;;;;5004716;28;10319;-83
2021/05/28 02:03:34;;;;;;;;;20.75;19.00;;;;;;;;5005145;28;10356;-78
2021/05/28 02:06:01;;;;;;;;;23.00;17.25;;;;;;;;5004264;28;10670;-81
2021/05/28 02:08:28;;;;;;;;;19.00;14.75;;;;;;;;5005595;28;10520;-81
2021/05/28 02:10:55;;;;;;;;;14.25;14.25;;;;;;;;5003753;28;10354;-82
2021/05/28 02:13:22;;;;;;;;;15.25;14.50;;;;;;;;5001030;28;10370;-76
2021/05/28 02:15:50;;;;;;;;;20.75;18.00;;;;;;;;5003773;28;10465;-82
2021/05/28 02:18:17;;;;;;;;;17.00;17.00;;;;;;;;5004927;28;10647;-83
2021/05/28 02:20:43;;;;;;;;;13.50;13.50;;;;;;;;5004469;28;10589;-83
2021/05/28 02:23:10;;;;;;;;;14.00;14.00;;;;;;;;5003194;28;10445;-78
2021/05/28 02:25:37;;;;;;;;;18.00;14.00;;;;;;;;5005598;28;10601;-80
2021/05/28 02:28:04;;;;;;;;;22.50;19.50;;;;;;;;4990459;28;10529;-83
2021/05/28 02:30:32;;;;;;;;;17.50;16.50;;;;;;;;5008023;28;10468;-82
2021/05/28 02:32:59;;;;;;;;;21.75;21.75;;;;;;;;4987379;28;10518;-84
2021/05/28 02:35:26;;;;;;;;;19.00;19.00;;;;;;;;5004846;28;10495;-82
2021/05/28 02:37:53;;;;;;;;;24.50;20.50;;;;;;;;5003887;28;10513;-83
2021/05/28 02:40:21;;;;;;;;;21.00;21.00;;;;;;;;5003300;28;10600;-85
2021/05/28 02:42:49;;;;;;;;;18.50;18.50;;;;;;;;5004413;28;10694;-82
2021/05/28 02:45:17;;;;;;;;;21.50;20.00;;;;;;;;5004646;28;11437;-82
2021/05/28 02:47:43;;;;;;;;;16.50;14.75;;;;;;;;5003451;28;11022;-78
2021/05/28 02:50:12;;;;;;;;;18.50;16.75;;;;;;;;5003967;28;10681;-80
2021/05/28 02:52:39;;;;;;;;;16.00;16.00;;;;;;;;5004007;28;10678;-83
2021/05/28 02:55:07;;;;;;;;;20.50;16.25;;;;;;;;5003998;28;10595;-78
2021/05/28 02:57:36;;;;;;;;;20.00;18.00;;;;;;;;5004592;28;10768;-78
2021/05/28 03:00:05;;;;;;;;;21.00;21.00;;;;;;;;5003570;28;10785;-80
2021/05/28 03:02:32;;;;;;;;;19.50;19.50;;;;;;;;5004405;28;10717;-82
2021/05/28 03:04:59;;;;;;;;;15.00;15.00;;;;;;;;5004305;28;10636;-81
2021/05/28 03:07:27;;;;;;;;;19.00;19.00;;;;;;;;5003711;28;10621;-85
2021/05/28 03:09:54;;;;;;;;;18.50;18.25;;;;;;;;5004329;28;10610;-84
2021/05/28 03:12:21;;;;;;;;;19.00;19.00;;;;;;;;5003227;28;10576;-84
2021/05/28 03:14:48;;;;;;;;;23.75;20.75;;;;;;;;5005136;28;10708;-81
2021/05/28 03:17:15;;;;;;;;;16.75;16.25;;;;;;;;4996030;28;10853;-83
2021/05/28 03:19:44;;;;;;;;;22.25;18.50;;;;;;;;4999714;28;10699;-85
2021/05/28 03:24:58;;;;;;;;;19.50;19.50;;;;;;;;4998503;28;10766;-82
2021/05/28 03:27:25;;;;;;;;;20.75;17.75;;;;;;;;4989022;28;10759;-85
2021/05/28 03:29:51;;;;;;;;;28.75;27.00;;;;;;;;5003481;28;10932;-82
2021/05/28 03:32:19;;;;;;;;;22.25;18.00;;;;;;;;5007864;28;10894;-79
2021/05/28 03:34:45;;;;;;;;;24.00;21.75;;;;;;;;5004966;28;10789;-84
2021/05/28 03:37:13;;;;;;;;;21.25;19.50;;;;;;;;5002981;28;10767;-80
2021/05/28 03:39:40;;;;;;;;;20.25;18.00;;;;;;;;5003910;28;10671;-79
2021/05/28 03:42:08;;;;;;;;;19.50;18.25;;;;;;;;5003598;28;10792;-77
2021/05/28 03:44:35;;;;;;;;;25.25;21.00;;;;;;;;4987410;28;10730;-77
2021/05/28 03:47:01;;;;;;;;;22.00;20.00;;;;;;;;4998967;28;10807;-82
2021/05/28 03:49:28;;;;;;;;;24.75;17.00;;;;;;;;5003933;28;10606;-81
2021/05/28 03:51:55;;;;;;;;;19.75;18.25;;;;;;;;5003138;28;10761;-77
2021/05/28 03:54:22;;;;;;;;;14.00;14.00;;;;;;;;5003073;28;10583;-83
2021/05/28 03:56:50;;;;;;;;;15.00;15.00;;;;;;;;4983504;28;10615;-85
2021/05/28 03:59:18;;;;;;;;;21.25;19.25;;;;;;;;4985553;28;10437;-85
2021/05/28 04:01:45;;;;;;;;;18.25;17.25;;;;;;;;5003353;28;10554;-83
2021/05/28 04:04:12;;;;;;;;;25.75;23.25;;;;;;;;4999948;28;10658;-77
2021/05/28 04:06:39;;;;;;;;;18.75;17.50;;;;;;;;4986917;28;11472;-82
2021/05/28 04:09:06;;;;;;;;;18.00;17.50;;;;;;;;5003072;28;10626;-81
2021/05/28 04:11:33;;;;;;;;;22.75;19.25;;;;;;;;5001317;28;10726;-84
2021/05/28 04:14:00;;;;;;;;;21.25;21.25;;;;;;;;5003403;28;10560;-85
2021/05/28 04:16:28;;;;;;;;;18.50;18.00;;;;;;;;5009019;28;10762;-82
2021/05/28 04:18:55;;;;;;;;;20.25;18.75;;;;;;;;5005475;28;11537;-86
2021/05/28 04:21:22;;;;;;;;;24.00;23.75;;;;;;;;4990383;28;10931;-85
2021/05/28 04:23:49;;;;;;;;;20.50;20.50;;;;;;;;5004933;28;10730;-88
2021/05/28 04:26:16;;;;;;;;;21.50;21.50;;;;;;;;5004211;28;10696;-85
2021/05/28 04:28:43;;;;;;;;;23.25;19.00;;;;;;;;5015518;28;10819;-85
2021/05/28 04:31:10;;;;;;;;;18.75;18.75;;;;;;;;5002051;28;10666;-85
2021/05/28 04:33:38;;;;;;;;;18.75;15.75;;;;;;;;5005913;28;10775;-82
2021/05/28 04:36:06;;;;;;;;;18.00;17.75;;;;;;;;5001472;28;10844;-80
2021/05/28 04:38:32;;;;;;;;;27.25;22.50;;;;;;;;5002250;28;10736;-76
2021/05/28 04:40:59;;;;;;;;;24.00;23.25;;;;;;;;5003341;28;11498;-82
2021/05/28 04:43:26;;;;;;;;;25.75;23.75;;;;;;;;5002828;28;10713;-78
2021/05/28 04:45:53;;;;;;;;;23.00;23.00;;;;;;;;5005288;28;10879;-79
2021/05/28 04:48:20;;;;;;;;;23.25;23.25;;;;;;;;5007136;28;13016;-82
2021/05/28 04:50:48;;;;;;;;;23.00;20.00;;;;;;;;5006439;28;10847;-82
2021/05/28 04:53:15;;;;;;;;;22.50;22.50;;;;;;;;4989848;28;10736;-80
2021/05/28 04:55:42;;;;;;;;;22.50;20.50;;;;;;;;5000860;28;10767;-81
2021/05/28 04:58:09;;;;;;;;;22.75;20.50;;;;;;;;5006013;28;10760;-81
2021/05/28 05:00:36;;;;;;;;;23.00;23.00;;;;;;;;5004184;28;10667;-77
2021/05/28 05:03:03;;;;;;;;;30.75;23.50;;;;;;;;5004663;28;10822;-81
2021/05/28 05:05:31;;;;;;;;;26.00;24.25;;;;;;;;5006411;28;10841;-77
2021/05/28 05:07:59;;;;;;;;;19.75;19.75;;;;;;;;5005391;28;10874;-82
2021/05/28 05:10:26;;;;;;;;;23.75;23.75;;;;;;;;5005429;28;10779;-81
2021/05/28 05:12:53;;;;;;;;;18.00;14.75;;;;;;;;5018181;28;10670;-80
2021/05/28 05:15:20;;;;;;;;;20.50;18.50;;;;;;;;5004368;28;10720;-78
2021/05/28 05:17:47;;;;;;;;;22.00;19.75;;;;;;;;5002406;28;10869;-82
2021/05/28 05:20:15;;;;;;;;;28.50;25.25;;;;;;;;5005572;28;10911;-73
2021/05/28 05:22:42;;;;;;;;;27.25;25.25;;;;;;;;5004566;28;10777;-85
2021/05/28 05:25:12;;;;;;;;;28.50;24.75;;;;;;;;5005978;28;10948;-79
2021/05/28 05:27:38;;;;;;;;;21.75;21.50;;;;;;;;5005949;28;10847;-77
2021/05/28 05:30:07;;;;;;;;;29.00;24.25;;;;;;;;5006252;28;10893;-82
2021/05/28 05:32:33;;;;;;;;;27.75;27.25;;;;;;;;5007433;28;10857;-76
2021/05/28 05:35:00;;;;;;;;;26.00;22.25;;;;;;;;5004774;28;11376;-79
2021/05/28 05:37:28;;;;;;;;;29.00;25.50;;;;;;;;5006218;28;10861;-71
2021/05/28 05:39:55;;;;;;;;;27.50;26.00;;;;;;;;4999612;28;10823;-75
2021/05/28 05:42:23;;;;;;;;;28.50;26.25;;;;;;;;5004489;28;10787;-72
2021/05/28 05:44:51;;;;;;;;;20.00;16.25;;;;;;;;5005369;28;10599;-71
2021/05/28 05:47:18;;;;;;;;;23.25;21.50;;;;;;;;5005790;28;10704;-74
2021/05/28 05:49:45;;;;;;;;;25.00;21.00;;;;;;;;5004793;28;10528;-75
2021/05/28 05:52:13;;;;;;;;;12.00;9.75;;;;;;;;5004663;28;10706;-75
2021/05/28 05:54:40;;;;;;;;;17.75;16.25;;;;;;;;5004741;28;11301;-75
2021/05/28 05:57:07;;;;;;;;;19.50;18.50;;;;;;;;5004483;28;10349;-72
2021/05/28 05:59:35;;;;;;;;;21.00;18.25;;;;;;;;5004043;28;10713;-80
2021/05/28 06:02:03;;;;;;;;;23.25;20.25;;;;;;;;5000606;28;10396;-81
2021/05/28 06:04:30;;;;;;;;;20.75;20.75;;;;;;;;5006008;28;10380;-80
2021/05/28 06:06:57;;;;;;;;;22.00;22.00;;;;;;;;5004239;28;10378;-88
2021/05/28 06:09:24;;;;;;;;;20.00;16.00;;;;;;;;5007032;28;10271;-82
2021/05/28 06:11:51;;;;;;;;;21.50;20.00;;;;;;;;5004946;28;10299;-85
2021/05/28 06:14:17;;;;;;;;;20.50;19.75;;;;;;;;5005733;28;10444;-78
2021/05/28 06:16:45;;;;;;;;;17.00;17.00;;;;;;;;4992658;28;10687;-75
2021/05/28 06:19:12;;;;;;;;;20.00;17.50;;;;;;;;5003492;28;11176;-80
2021/05/28 06:21:39;;;;;;;;;21.25;19.50;;;;;;;;5004725;28;10354;-78
2021/05/28 06:24:07;;;;;;;;;21.50;21.50;;;;;;;;5003625;28;10209;-71
2021/05/28 06:26:34;;;;;;;;;16.75;16.25;;;;;;;;5004521;28;10434;-70
2021/05/28 06:29:03;;;;;;;;;21.50;18.75;;;;;;;;5004328;28;10310;-73
2021/05/28 06:31:29;;;;;;;;;25.00;16.50;;;;;;;;5003415;28;10589;-75
2021/05/28 06:33:57;;;;;;;;;17.75;17.75;;;;;;;;5007177;28;10127;-76
2021/05/28 06:36:24;;;;;;;;;22.50;20.50;;;;;;;;5003020;28;10203;-75
2021/05/28 06:38:52;;;;;;;;;23.00;17.50;;;;;;;;5005340;28;10901;-74
2021/05/28 06:41:18;;;;;;;;;21.75;17.75;;;;;;;;5003022;28;10049;-72
2021/05/28 06:43:46;;;;;;;;;14.00;14.00;;;;;;;;4987134;28;9988;-74
2021/05/28 06:46:12;;;;;;;;;18.00;18.00;;;;;;;;5003335;28;9724;-71
2021/05/28 06:48:39;;;;;;;;;16.00;16.00;;;;;;;;5004876;28;9832;-71
2021/05/28 06:51:07;;;;;;;;;15.75;15.75;;;;;;;;5003797;28;9800;-71
2021/05/28 06:53:34;;;;;;;;;9.25;8.25;;;;;;;;5003199;28;10765;-69
2021/05/28 06:56:01;;;;;;;;;15.25;15.25;;;;;;;;5007592;28;10660;-69
2021/05/28 06:58:29;;;;;;;;;18.50;17.25;;;;;;;;5003391;28;9965;-70
2021/05/28 07:00:56;;;;;;;;;14.25;14.25;;;;;;;;5003320;28;9819;-73
2021/05/28 07:03:22;;;;;;;;;15.00;12.75;;;;;;;;4986593;28;9552;-73
2021/05/28 07:05:49;;;;;;;;;15.50;15.25;;;;;;;;4986726;28;9720;-76
2021/05/28 07:08:18;;;;;;;;;13.50;12.00;;;;;;;;5003084;28;9862;-73
2021/05/28 07:10:45;;;;;;;;;15.25;14.00;;;;;;;;5004265;28;10496;-72
2021/05/28 07:13:11;;;;;;;;;17.00;15.50;;;;;;;;5004217;28;9537;-71
2021/05/28 07:15:39;;;;;;;;;17.25;15.50;;;;;;;;5002481;28;9554;-70
2021/05/28 07:18:06;;;;;;;;;14.50;13.75;;;;;;;;5005634;28;9498;-73
2021/05/28 07:20:33;;;;;;;;;13.00;13.00;;;;;;;;5002641;28;9507;-70
2021/05/28 07:23:00;;;;;;;;;12.75;12.75;;;;;;;;5012838;28;9585;-71
2021/05/28 07:25:28;;;;;;;;;21.25;16.75;;;;;;;;5002506;28;9748;-70
2021/05/28 07:27:56;;;;;;;;;12.00;12.00;;;;;;;;5009584;28;9556;-71
2021/05/28 07:30:23;;;;;;;;;14.25;14.25;;;;;;;;5001761;28;9358;-70
2021/05/28 07:32:50;;;;;;;;;13.33;12.67;;;;;;;;5007427;28;9600;-73
2021/05/28 07:35:16;;;;;;;;;12.33;12.33;;;;;;;;5003912;28;9448;-77
2021/05/28 07:37:43;;;;;;;;;15.00;12.67;;;;;;;;5003024;28;9309;-74
2021/05/28 07:40:11;;;;;;;;;11.00;11.00;;;;;;;;5003693;28;9123;-70
2021/05/28 07:42:40;;;;;;;;;12.33;12.33;;;;;;;;4985405;28;9105;-70
2021/05/28 07:45:08;;;;;;;;;11.00;11.00;;;;;;;;5002924;28;9100;-71
2021/05/28 07:47:35;;;;;;;;;11.67;11.67;;;;;;;;5002068;28;8981;-70
2021/05/28 07:50:04;;;;;;;;;11.33;11.33;;;;;;;;5001931;28;9844;-75
2021/05/28 07:52:31;;;;;;;;;11.67;11.67;;;;;;;;5004545;28;8942;-77
2021/05/28 07:54:58;;;;;;;;;8.00;8.00;;;;;;;;5002595;28;8956;-74
2021/05/28 07:57:25;;;;;;;;;12.00;12.00;;;;;;;;5003880;28;8889;-77
2021/05/28 07:59:53;;;;;;;;;12.00;11.25;;;;;;;;5002221;28;8909;-69
2021/05/28 08:02:20;;;;;;;;;9.75;9.75;;;;;;;;5003135;28;8823;-71
2021/05/28 08:04:47;;;;;;;;;10.25;10.25;;;;;;;;5002187;28;9629;-78
2021/05/28 08:07:14;;;;;;;;;10.00;10.00;;;;;;;;5005461;28;8911;-71
2021/05/28 08:09:41;;;;;;;;;11.25;11.25;;;;;;;;5001263;28;8855;-75
2021/05/28 08:12:08;;;;;;;;;11.00;9.75;;;;;;;;4999943;28;8894;-75
2021/05/28 08:14:35;;;;;;;;;7.75;7.75;;;;;;;;5002505;28;8940;-70
2021/05/28 08:17:03;;;;;;;;;6.75;6.75;;;;;;;;5002472;28;8997;-77
2021/05/28 08:19:30;;;;;;;;;9.00;9.00;;;;;;;;5003870;28;9009;-83
2021/05/28 08:21:57;;;;;;;;;8.00;8.00;;;;;;;;5007130;28;9013;-77
2021/05/28 08:24:24;;;;;;;;;9.00;9.00;;;;;;;;5006648;28;9040;-72
2021/05/28 08:26:51;;;;;;;;;9.00;9.00;;;;;;;;5007047;28;8934;-79
2021/05/28 08:29:18;;;;;;;;;8.75;8.75;;;;;;;;5006231;28;8975;-73
2021/05/28 08:31:45;;;;;;;;;11.75;10.25;;;;;;;;5005282;28;8827;-78
2021/05/28 08:34:13;;;;;;;;;8.50;7.50;;;;;;;;5006207;28;8869;-69
2021/05/28 08:36:40;;;;;;;;;7.00;6.00;;;;;;;;5007129;28;8871;-70
2021/05/28 08:39:07;;;;;;;;;6.00;6.00;;;;;;;;4988736;28;8882;-79
2021/05/28 08:41:35;;;;;;;;;5.75;5.75;;;;;;;;5007671;28;8878;-71
2021/05/28 08:44:03;;;;;;;;;8.50;8.00;;;;;;;;5002811;28;8885;-70
2021/05/28 08:46:31;;;;;;;;;7.00;7.00;;;;;;;;4989402;28;8902;-81
2021/05/28 08:48:58;;;;;;;;;8.00;8.00;;;;;;;;5007384;28;9632;-70
2021/05/28 08:51:26;;;;;;;;;6.75;6.00;;;;;;;;5010579;28;8857;-70
2021/05/28 08:53:53;;;;;;;;;7.75;7.75;;;;;;;;5007606;28;9005;-70
2021/05/28 08:56:20;;;;;;;;;9.00;9.00;;;;;;;;5005924;28;8874;-70
2021/05/28 08:58:47;;;;;;;;;7.75;6.00;;;;;;;;4996839;28;8985;-70
2021/05/28 09:01:14;;;;;;;;;4.50;4.00;;;;;;;;5005611;28;8859;-74
2021/05/28 09:03:43;;;;;;;;;7.00;7.00;;;;;;;;4998121;28;9769;-76
2021/05/28 09:06:16;;;;;;;;;5.25;5.25;;;;;;;;5007016;28;8878;-71
2021/05/28 09:08:44;;;;;;;;;4.25;4.25;;;;;;;;5003605;28;9779;-71
2021/05/28 09:11:14;;;;;;;;;8.00;6.00;;;;;;;;5000619;28;8969;-73
2021/05/28 09:13:46;;;;;;;;;7.75;6.25;;;;;;;;5006207;28;8944;-71
2021/05/28 09:16:14;;;;;;;;;7.00;7.00;;;;;;;;5006571;28;8937;-72
2021/05/28 09:18:44;;;;;;;;;3.75;3.75;;;;;;;;4988865;28;10116;-71
2021/05/28 09:21:14;;;;;;;;;4.50;4.50;;;;;;;;5006447;28;8909;-75
2021/05/28 09:23:41;;;;;;;;;4.00;4.00;;;;;;;;4989184;28;8851;-71
2021/05/28 09:26:10;;;;;;;;;6.00;6.00;;;;;;;;5005382;28;8901;-72
2021/05/28 09:28:45;;;;;;;;;3.20;3.20;;;;;;;;5008616;28;8968;-77
2021/05/28 09:31:14;;;;;;;;;3.60;2.40;;;;;;;;5002643;28;8815;-73
2021/05/28 09:33:43;;;;;;;;;4.20;3.60;;;;;;;;5008969;28;8874;-70
2021/05/28 09:36:16;;;;;;;;;4.00;2.20;;;;;;;;5005820;28;8936;-75
2021/05/28 09:39:00;;;;;;;;;2.00;2.00;;;;;;;;5006424;28;8897;-78
2021/05/28 09:41:39;;;;;;;;;3.80;3.80;;;;;;;;5006340;28;8862;-70
2021/05/28 09:44:14;;;;;;;;;4.00;4.00;;;;;;;;5005205;28;8973;-70
2021/05/28 09:47:02;;;;;;;;;4.40;4.00;;;;;;;;5005462;28;8859;-73
2021/05/28 09:49:31;;;;;;;;;4.40;4.40;;;;;;;;5002660;28;8969;-70
2021/05/28 09:52:10;;;;;;;;;6.80;4.20;;;;;;;;4994093;28;8972;-75
2021/05/28 09:54:37;;;;;;;;;2.40;1.80;;;;;;;;5005942;28;8854;-71
2021/05/28 09:57:06;;;;;;;;;2.20;2.20;;;;;;;;5005101;28;8887;-71
2021/05/28 09:59:44;;;;;;;;;4.00;4.00;;;;;;;;5005660;28;9699;-74
2021/05/28 10:02:23;;;;;;;;;6.00;3.00;;;;;;;;5003521;28;8820;-70
2021/05/28 10:04:55;;;;;;;;;3.60;3.60;;;;;;;;5005767;28;8869;-73
2021/05/28 10:07:23;;;;;;;;;2.20;2.20;;;;;;;;5005722;28;8897;-71
2021/05/28 10:09:53;;;;;;;;;2.00;2.00;;;;;;;;5005142;28;9653;-75
2021/05/28 10:12:22;;;;;;;;;4.00;4.00;;;;;;;;5005945;28;8897;-71
2021/05/28 10:14:49;;;;;;;;;3.40;3.40;;;;;;;;5004429;28;8932;-71
2021/05/28 10:17:17;;;;;;;;;3.20;3.20;;;;;;;;5005692;28;8886;-75
2021/05/28 10:19:44;;;;;;;;;3.40;3.40;;;;;;;;5004935;28;8862;-73
2021/05/28 10:22:23;;;;;;;;;4.00;4.00;;;;;;;;5005986;28;8863;-74
2021/05/28 10:24:50;;;;;;;;;4.00;4.00;;;;;;;;5005885;28;8863;-71
2021/05/28 10:27:23;;;;;;;;;4.60;4.60;;;;;;;;5007937;28;8861;-71
2021/05/28 10:29:52;;;;;;;;;3.00;3.00;;;;;;;;4994810;28;8895;-71
2021/05/28 10:32:19;;;;;;;;;5.60;4.00;;;;;;;;5008317;28;8877;-73
2021/05/28 10:35:10;;;;;;;;;4.00;4.00;;;;;;;;5005742;28;8854;-76
2021/05/28 10:37:37;;;;;;;;;3.80;3.80;;;;;;;;4995886;28;8866;-71
2021/05/28 10:40:23;;;;;;;;;4.60;4.60;;;;;;;;5004406;28;8905;-73
2021/05/28 10:43:04;;;;;;;;;4.00;4.00;;;;;;;;5004460;28;8897;-74
2021/05/28 10:45:58;;;;;;;;;2.60;2.60;;;;;;;;5003183;28;8866;-72
2021/05/28 10:49:06;;;;;;;;;2.60;2.60;;;;;;;;4996709;28;8859;-75
2021/05/28 10:52:01;;;;;;;;;5.00;5.00;;;;;;;;5005105;28;8874;-74
2021/05/28 10:54:31;;;;;;;;;4.80;4.80;;;;;;;;5004590;28;9443;-71
2021/05/28 10:57:32;;;;;;;;;3.20;3.20;;;;;;;;5004186;28;8881;-72
2021/05/28 11:00:11;;;;;;;;;4.00;4.00;;;;;;;;5005048;28;8854;-80
2021/05/28 11:02:48;;;;;;;;;4.60;3.80;;;;;;;;5003292;28;8808;-71
2021/05/28 11:05:17;;;;;;;;;6.80;4.80;;;;;;;;5004258;28;9498;-73
2021/05/28 11:07:46;;;;;;;;;4.40;4.40;;;;;;;;5004954;28;8869;-71
2021/05/28 11:10:22;;;;;;;;;4.40;4.00;;;;;;;;5003903;28;8886;-71
2021/05/28 11:12:50;;;;;;;;;3.60;3.60;;;;;;;;5005039;28;8874;-71
2021/05/28 11:15:25;;;;;;;;;3.00;3.00;;;;;;;;5003423;28;8956;-71
2021/05/28 11:17:57;;;;;;;;;3.00;3.00;;;;;;;;4993274;28;8985;-70
2021/05/28 11:20:30;;;;;;;;;4.00;4.00;;;;;;;;5003766;28;8882;-71
2021/05/28 11:22:57;;;;;;;;;2.60;2.60;;;;;;;;5004904;28;8885;-75
2021/05/28 11:25:28;;;;;;;;;2.40;2.40;;;;;;;;5003445;28;8867;-71
2021/05/28 11:28:10;;;;;;;;;3.00;3.00;;;;;;;;4997749;28;8875;-75
2021/05/28 11:30:45;;;;;;;;;3.80;2.80;;;;;;;;5003622;28;8799;-72
2021/05/28 11:33:43;;;;;;;;;2.00;2.00;;;;;;;;4999279;28;9487;-72
2021/05/28 11:36:47;;;;;;;;;3.40;2.40;;;;;;;;4962807;28;8875;-75
2021/05/28 11:39:25;;;;;;;;;1.80;1.80;;;;;;;;5004688;28;8873;-73
2021/05/28 11:41:57;;;;;;;;;2.00;2.00;;;;;;;;5003459;28;8917;-73
2021/05/28 11:44:25;;;;;;;;;2.00;2.00;;;;;;;;5004220;28;8882;-72
2021/05/28 11:46:54;;;;;;;;;1.60;1.60;;;;;;;;5003119;28;8859;-71
2021/05/28 11:49:22;;;;;;;;;2.40;2.40;;;;;;;;5003607;28;8890;-71
2021/05/28 11:51:59;;;;;;;;;2.80;2.80;;;;;;;;5004309;28;9680;-76
2021/05/28 11:54:29;;;;;;;;;1.60;1.60;;;;;;;;5002693;28;9750;-74
2021/05/28 11:56:58;;;;;;;;;2.40;2.40;;;;;;;;5004326;28;9553;-72
2021/05/28 11:59:51;;;;;;;;;2.40;2.00;;;;;;;;5002966;28;8882;-76
2021/05/28 12:02:43;;;;;;;;;1.20;1.20;;;;;;;;4998560;28;8827;-78
2021/05/28 12:05:36;;;;;;;;;4.80;4.00;;;;;;;;5003316;28;8877;-73
2021/05/28 12:08:17;;;;;;;;;4.80;3.20;;;;;;;;4980843;28;8894;-71
2021/05/28 12:10:46;;;;;;;;;5.40;2.60;;;;;;;;5003853;28;8879;-75
2021/05/28 12:13:15;;;;;;;;;2.40;2.40;;;;;;;;5004417;28;8863;-72
2021/05/28 12:15:44;;;;;;;;;6.20;3.60;;;;;;;;5002847;28;8882;-71
2021/05/28 12:18:27;;;;;;;;;1.00;1.00;;;;;;;;5008167;28;8874;-87
2021/05/28 12:20:55;;;;;;;;;2.80;2.80;;;;;;;;5006323;28;8916;-88
2021/05/28 12:23:25;;;;;;;;;2.00;2.00;;;;;;;;5004905;28;8863;-87
2021/05/28 12:25:54;;;;;;;;;1.80;1.80;;;;;;;;4991001;28;8878;-76
2021/05/28 12:28:23;;;;;;;;;4.40;4.40;;;;;;;;5016687;28;8884;-83
2021/05/28 12:30:56;;;;;;;;;1.40;1.40;;;;;;;;5004005;28;8905;-81
2021/05/28 12:33:31;;;;;;;;;6.00;2.80;;;;;;;;5005448;28;8867;-71
2021/05/28 12:36:00;;;;;;;;;1.80;1.80;;;;;;;;5003706;28;8866;-72
2021/05/28 12:38:36;;;;;;;;;3.20;3.00;;;;;;;;5003035;28;8878;-70
2021/05/28 12:41:04;;;;;;;;;3.00;3.00;;;;;;;;5004360;28;8894;-71
2021/05/28 12:43:32;;;;;;;;;2.20;2.20;;;;;;;;5003456;28;8882;-70
2021/05/28 12:46:00;;;;;;;;;3.80;2.60;;;;;;;;5002707;28;8872;-79
2021/05/28 12:48:45;;;;;;;;;2.40;2.20;;;;;;;;5003200;28;8988;-73
2021/05/28 12:51:13;;;;;;;;;4.60;4.60;;;;;;;;5002203;28;8893;-73
2021/05/28 12:53:40;;;;;;;;;2.80;2.80;;;;;;;;5004026;28;8897;-73
2021/05/28 12:56:08;;;;;;;;;3.00;3.00;;;;;;;;5002857;28;8866;-72
2021/05/28 12:58:40;;;;;;;;;2.80;2.80;;;;;;;;5003721;28;8909;-74
2021/05/28 13:01:08;;;;;;;;;3.00;3.00;;;;;;;;5002723;28;8913;-76
2021/05/28 13:03:40;;;;;;;;;3.00;3.00;;;;;;;;5003410;28;8891;-77
2021/05/28 13:06:32;;;;;;;;;4.20;4.20;;;;;;;;5005930;28;8928;-71
2021/05/28 13:09:12;;;;;;;;;4.40;4.40;;;;;;;;5010747;28;8882;-73
2021/05/28 13:11:50;;;;;;;;;4.40;3.40;;;;;;;;5006899;28;9602;-71
2021/05/28 13:14:22;;;;;;;;;3.40;3.40;;;;;;;;5006120;28;8920;-72
2021/05/28 13:16:49;;;;;;;;;2.20;2.20;;;;;;;;5006034;28;8888;-71
2021/05/28 13:19:17;;;;;;;;;3.60;3.60;;;;;;;;5007044;28;8893;-70
2021/05/28 13:21:53;;;;;;;;;4.80;4.80;;;;;;;;5007300;28;8889;-71
2021/05/28 13:24:42;;;;;;;;;2.20;1.60;;;;;;;;5007032;28;8904;-72
2021/05/28 13:27:19;;;;;;;;;3.40;3.40;;;;;;;;5007969;28;8863;-70
2021/05/28 13:29:55;;;;;;;;;2.40;2.40;;;;;;;;5013377;28;8862;-78
2021/05/28 13:32:24;;;;;;;;;2.80;2.60;;;;;;;;5016583;28;8813;-71
2021/05/28 13:34:52;;;;;;;;;4.40;3.80;;;;;;;;5012137;28;8890;-73
2021/05/28 13:37:20;;;;;;;;;2.00;2.00;;;;;;;;4993611;28;8882;-74
2021/05/28 13:39:47;;;;;;;;;4.00;3.00;;;;;;;;5005602;28;8875;-70
2021/05/28 13:42:14;;;;;;;;;3.40;3.40;;;;;;;;5006583;28;8997;-75
2021/05/28 13:44:41;;;;;;;;;2.60;2.60;;;;;;;;5004953;28;8975;-72
2021/05/28 13:47:09;;;;;;;;;3.40;3.40;;;;;;;;5005925;28;8909;-76
2021/05/28 13:49:37;;;;;;;;;3.00;3.00;;;;;;;;5005452;28;8871;-71
2021/05/28 13:52:03;;;;;;;;;3.60;2.40;;;;;;;;4988057;28;8989;-70
2021/05/28 13:54:32;;;;;;;;;2.20;2.20;;;;;;;;5006353;28;9621;-72
2021/05/28 13:56:59;;;;;;;;;2.80;2.80;;;;;;;;5003872;28;8862;-74
2021/05/28 13:59:25;;;;;;;;;4.40;3.60;;;;;;;;4988588;28;8863;-72
2021/05/28 14:01:52;;;;;;;;;3.60;3.60;;;;;;;;5004285;28;8831;-75
2021/05/28 14:04:19;;;;;;;;;2.00;2.00;;;;;;;;5001490;28;9666;-80
2021/05/28 14:06:46;;;;;;;;;2.80;2.80;;;;;;;;5004749;28;8898;-78
2021/05/28 14:09:13;;;;;;;;;3.00;3.00;;;;;;;;5005042;28;8936;-73
2021/05/28 14:11:41;;;;;;;;;3.00;2.20;;;;;;;;5006381;28;8880;-73
2021/05/28 14:14:08;;;;;;;;;4.60;3.40;;;;;;;;5005306;28;8892;-71
2021/05/28 14:16:35;;;;;;;;;1.80;1.80;;;;;;;;5005244;28;8882;-77
2021/05/28 14:19:02;;;;;;;;;2.80;2.40;;;;;;;;4986074;28;8897;-75
2021/05/28 14:21:29;;;;;;;;;3.60;3.60;;;;;;;;4988778;28;8867;-77
2021/05/28 14:23:56;;;;;;;;;3.00;3.00;;;;;;;;5004617;28;8879;-71
2021/05/28 14:26:23;;;;;;;;;5.40;3.60;;;;;;;;5005096;28;8886;-78
2021/05/28 14:28:51;;;;;;;;;3.40;3.40;;;;;;;;5018159;28;8892;-81
2021/05/28 14:31:19;;;;;;;;;3.00;3.00;;;;;;;;5003640;28;8813;-74
2021/05/28 14:33:52;;;;;;;;;3.60;3.60;;;;;;;;5016322;28;8981;-77
2021/05/28 14:36:22;;;;;;;;;2.80;2.80;;;;;;;;5005086;28;8897;-72
2021/05/28 14:38:49;;;;;;;;;2.00;2.00;;;;;;;;5005924;28;8905;-78
2021/05/28 14:41:16;;;;;;;;;1.80;1.80;;;;;;;;5005287;28;8865;-79
2021/05/28 14:43:45;;;;;;;;;4.40;2.80;;;;;;;;5005342;28;8875;-72
2021/05/28 14:46:14;;;;;;;;;2.20;2.20;;;;;;;;5005193;28;8985;-84
2021/05/28 14:48:41;;;;;;;;;2.40;2.40;;;;;;;;5004510;28;9593;-80
2021/05/28 14:51:08;;;;;;;;;2.00;2.00;;;;;;;;5005162;28;8878;-74